Fuerteventura, Spain

09:37 PM WET am 24. Februar 2017 (GMT +0000)
Fuerteventura | | Change Station

Höhe 75 ft 28.45 °N, 13.87 °W | Updated 7 minutes ago

Partly Cloudy
Teils Wolkig
64 °F
gefühlte 64 °F
N
17
Wind Wechselnd Wind aus Nord

Heute
Max. -- | schwach -- °F
--% Regenrisiko
Gestern
Max. -- | schwach -- °F
Precip. -- inch
Druck 30.15 inch
Sichtweite 6.2 Meilen
Wolken Few 4000 ft
Taupunkt 54 °F
Feuchtigkeit 68%
Regen 0.00 inch
Schneehöhe Nicht verfügbar..
7:25 AM 6:52 PM
Letztes Viertel, 3% visible
METAR GCFV 242130Z 01015KT 9999 FEW040 18/12 Q1021
Druck 30.15 inch
Sichtweite 6.2 Meilen
Wolken Few 4000 ft
Taupunkt 54 °F
Feuchtigkeit 68%
Regen 0.00 inch
Schneehöhe Nicht verfügbar..
7:25 AM 6:52 PM
Letztes Viertel, 3% visible
METAR GCFV 242130Z 01015KT 9999 FEW040 18/12 Q1021

Get Your Daily Forecast Email!

Thanks for signing up!

Be on the lookout for a verification email in your inbox.

You'll start receiving the daily forecast at 8 AM.

×

10-Day Weather Forecast

×

Almanac

Astronomie

Feb. 24, 2017 Aufgang Untergang
Genaue Zeit
Bürgerliche Dämmerung
Nautische Dämmerung
Astronomische Dämmerung
Mond
Länge des sichtbaren Lichts
Tageslänge
Tomorrow will be .
, % of the Moon is Illuminated

Heutige Rekorde

Country Highs Country Lows

Community

WunderPhotos

Upload Photos

1,962,540 Fotos hochgeladen!

WunderBlog® & News

Nearby

Luftqualität

  Luftqualität LQ Index Schadstoff
Not available.

Schneehöhe

Station Depth Höhe

Erdbebenaktivität

Stadt Distance Mag. Time & Date
Minimum magnitude displayed is 2.5.

küstennahe Wassertemperaturen

Ort Temperatur

Stations

Wetterstationen in der Umgebung

Stationsstandort Temp. Windchill Taupunkt Feuchtigkeit Wind Precip. Höhe Aktualisiert Art